Time;durP1;ratioP1;P1;durP2;ratioP2;P2;SDS_P1;SDS_P2;PMS_P1;PMS_P2;Temp;Humidity;BMP_temperature;BMP_pressure;BME280_temperature;BME280_humidity;BME280_pressure;Samples;Min_cycle;Max_cycle;Signal;HPM_P1;HPM_P2
2020/12/31 00:01:46;;;;;;;3.85;2.50;;;;;;;2.92;63.69;94894.13;4770228;30;20087;-43
2020/12/31 00:04:12;;;;;;;4.45;2.65;;;;;;;2.84;63.67;94876.97;4770312;30;20146;-43
2020/12/31 00:06:39;;;;;;;4.03;2.45;;;;;;;2.90;63.82;94889.13;4769162;30;20051;-42
2020/12/31 00:09:05;;;;;;;4.13;2.50;;;;;;;2.90;63.70;94880.31;4769840;30;20109;-43
2020/12/31 00:11:31;;;;;;;3.42;2.28;;;;;;;3.01;63.69;94890.41;4770013;29;20087;-42
2020/12/31 00:13:58;;;;;;;3.63;2.50;;;;;;;2.85;64.08;94888.44;4770057;30;20515;-44
2020/12/31 00:16:24;;;;;;;3.80;2.30;;;;;;;3.01;63.51;94889.63;4770380;30;20534;-44
2020/12/31 00:18:51;;;;;;;3.95;2.38;;;;;;;2.95;63.51;94894.31;4769326;30;20063;-41
2020/12/31 00:21:17;;;;;;;3.78;2.83;;;;;;;2.89;63.76;94898.19;4770348;29;20128;-41
2020/12/31 00:23:43;;;;;;;5.07;2.70;;;;;;;2.97;63.88;94891.34;4769991;30;20117;-42
2020/12/31 00:26:10;;;;;;;4.43;2.22;;;;;;;2.94;63.73;94894.63;4770272;30;20064;-42
2020/12/31 00:28:39;;;;;;;5.45;2.83;;;;;;;2.99;63.54;94884.59;4769587;30;20422;-42
2020/12/31 00:31:08;;;;;;;4.88;2.90;;;;;;;2.64;64.84;94880.22;4769799;30;20051;-40
2020/12/31 00:33:34;;;;;;;3.83;2.47;;;;;;;2.74;64.45;94878.03;4770169;30;20062;-40
2020/12/31 00:36:01;;;;;;;4.88;3.35;;;;;;;2.73;64.40;94884.50;4770065;30;20068;-41
2020/12/31 00:38:27;;;;;;;4.00;2.58;;;;;;;2.53;64.99;94871.66;4769244;30;20143;-42
2020/12/31 00:40:54;;;;;;;4.97;2.67;;;;;;;2.43;65.46;94880.72;4770208;30;20059;-41
2020/12/31 00:43:21;;;;;;;3.60;2.70;;;;;;;2.44;65.58;94879.63;4769998;30;20066;-39
2020/12/31 00:45:47;;;;;;;3.80;2.58;;;;;;;2.53;65.20;94887.66;4769588;30;20055;-42
2020/12/31 00:48:14;;;;;;;4.40;2.67;;;;;;;2.69;64.59;94890.75;4769063;30;20080;-42
2020/12/31 00:50:40;;;;;;;4.32;2.75;;;;;;;2.54;64.78;94881.25;4770176;30;20056;-42
2020/12/31 00:53:07;;;;;;;4.70;2.95;;;;;;;2.42;65.31;94881.03;4768633;30;20048;-39
2020/12/31 00:55:35;;;;;;;4.65;2.90;;;;;;;2.34;65.78;94885.22;4768561;30;20056;-39
2020/12/31 00:58:02;;;;;;;5.28;3.10;;;;;;;2.37;65.33;94878.47;4767688;30;20064;-41
2020/12/31 01:00:33;;;;;;;3.88;2.72;;;;;;;2.36;65.38;94895.59;4768437;30;20051;-41
2020/12/31 01:03:06;;;;;;;4.38;2.67;;;;;;;2.28;65.62;94897.13;4769469;30;20079;-42
2020/12/31 01:05:32;;;;;;;4.35;3.00;;;;;;;2.60;64.76;94896.06;4769416;30;20098;-40
2020/12/31 01:07:59;;;;;;;5.35;3.20;;;;;;;2.57;64.75;94892.09;4767665;30;20075;-39
2020/12/31 01:10:25;;;;;;;4.47;3.13;;;;;;;2.76;63.87;94896.41;4769557;29;20071;-39
2020/12/31 01:12:52;;;;;;;5.55;3.25;;;;;;;2.54;64.47;94884.72;4769540;30;20400;-41
2020/12/31 01:15:19;;;;;;;5.93;3.53;;;;;;;2.57;64.57;94894.00;4768714;30;20503;-40
2020/12/31 01:17:45;;;;;;;5.07;3.30;;;;;;;2.52;64.68;94897.56;4768605;30;20098;-41
2020/12/31 01:20:12;;;;;;;5.05;3.40;;;;;;;2.46;65.13;94895.34;4753260;30;20067;-45
2020/12/31 01:22:38;;;;;;;5.07;3.50;;;;;;;2.67;64.40;94898.28;4769411;29;20339;-40
2020/12/31 01:25:05;;;;;;;4.85;3.40;;;;;;;2.60;64.08;94909.41;4769805;29;20055;-40
2020/12/31 01:27:32;;;;;;;5.40;3.65;;;;;;;2.66;64.20;94899.34;4768683;30;20072;-39
2020/12/31 01:29:59;;;;;;;5.40;3.42;;;;;;;2.68;63.88;94886.50;4768710;29;20059;-42
2020/12/31 01:32:26;;;;;;;5.45;3.90;;;;;;;2.37;65.13;94894.50;4769010;30;20055;-39
2020/12/31 01:34:53;;;;;;;5.55;3.50;;;;;;;2.37;65.21;94891.81;4769610;30;20145;-44
2020/12/31 01:37:20;;;;;;;5.45;3.67;;;;;;;2.61;64.52;94899.50;4768707;30;20135;-40
2020/12/31 01:39:47;;;;;;;4.50;3.15;;;;;;;2.47;64.67;94900.38;4769129;29;20147;-39
2020/12/31 01:42:14;;;;;;;5.57;3.63;;;;;;;2.47;64.58;94889.69;4768066;30;20094;-39
2020/12/31 01:44:41;;;;;;;4.85;3.47;;;;;;;2.63;63.99;94894.63;4768991;30;20066;-39
2020/12/31 01:47:10;;;;;;;5.05;3.72;;;;;;;2.45;64.66;94891.88;4768189;30;20056;-39
2020/12/31 01:49:39;;;;;;;5.65;3.53;;;;;;;2.49;64.03;94879.50;4768130;30;20083;-38
2020/12/31 01:52:06;;;;;;;4.38;3.30;;;;;;;2.55;64.08;94875.59;4767762;30;20080;-39
2020/12/31 01:54:33;;;;;;;6.03;3.47;;;;;;;2.70;63.61;94878.97;4768902;30;20081;-47
2020/12/31 01:57:00;;;;;;;5.13;3.90;;;;;;;2.50;64.10;94881.09;4768886;30;20068;-42
2020/12/31 01:59:26;;;;;;;5.35;4.10;;;;;;;2.40;64.58;94873.31;4768169;30;20101;-39
2020/12/31 02:01:53;;;;;;;5.60;3.53;;;;;;;2.30;64.79;94878.91;4768806;29;20087;-40
2020/12/31 02:04:20;;;;;;;6.03;3.80;;;;;;;2.50;64.39;94870.41;4767827;30;20518;-41
2020/12/31 02:06:47;;;;;;;5.38;3.58;;;;;;;2.47;64.28;94868.34;4753242;30;20052;-45
2020/12/31 02:09:14;;;;;;;6.35;4.10;;;;;;;2.32;64.58;94861.50;4768437;30;20059;-45
2020/12/31 02:11:41;;;;;;;5.63;4.00;;;;;;;2.23;65.00;94862.53;4768680;30;20108;-43
2020/12/31 02:14:09;;;;;;;5.53;3.83;;;;;;;2.20;64.92;94871.94;4769052;30;20052;-39
2020/12/31 02:16:38;;;;;;;5.82;3.78;;;;;;;2.18;65.28;94876.81;4767676;30;20066;-42
2020/12/31 02:19:11;;;;;;;7.03;4.03;;;;;;;2.34;64.77;94875.34;4767854;30;20078;-41
2020/12/31 02:21:45;;;;;;;8.88;5.10;;;;;;;2.22;64.80;94875.09;4767518;30;20138;-39
2020/12/31 02:24:12;;;;;;;5.70;3.50;;;;;;;2.01;65.62;94866.78;4768676;29;20463;-39
2020/12/31 02:26:40;;;;;;;5.85;4.00;;;;;;;2.01;65.79;94866.78;4768425;30;20080;-41
2020/12/31 02:29:09;;;;;;;6.22;4.13;;;;;;;2.09;65.60;94873.28;4767794;29;20502;-41
2020/12/31 02:31:37;;;;;;;7.05;4.18;;;;;;;2.19;64.95;94872.25;4767942;30;20461;-43
2020/12/31 02:34:04;;;;;;;5.68;3.80;;;;;;;2.37;64.36;94865.13;4767245;30;20091;-39
2020/12/31 02:36:32;;;;;;;6.00;4.00;;;;;;;2.34;64.50;94874.56;4768450;29;20430;-41
2020/12/31 02:39:05;;;;;;;5.63;4.03;;;;;;;2.43;64.17;94872.69;4767985;29;20139;-40
2020/12/31 02:41:31;;;;;;;4.78;3.55;;;;;;;2.56;63.61;94876.38;4770035;29;20449;-40
2020/12/31 02:43:58;;;;;;;5.63;3.67;;;;;;;2.43;63.94;94878.03;4771780;29;20064;-39
2020/12/31 02:46:25;;;;;;;7.75;4.28;;;;;;;2.46;63.61;94868.63;4771703;30;20503;-42
2020/12/31 02:48:52;;;;;;;5.75;3.92;;;;;;;2.32;64.09;94868.72;4770974;30;20494;-39
2020/12/31 02:51:19;;;;;;;10.15;4.45;;;;;;;2.14;64.78;94865.16;4771641;30;20108;-39
2020/12/31 02:53:46;;;;;;;5.90;3.90;;;;;;;2.24;64.43;94866.78;4771666;30;20063;-40
2020/12/31 02:56:17;;;;;;;7.47;3.83;;;;;;;2.10;64.79;94856.19;4771630;30;20479;-41
2020/12/31 02:58:45;;;;;;;6.03;3.97;;;;;;;2.16;63.85;94851.53;4771070;29;20063;-39
2020/12/31 03:01:13;;;;;;;7.50;3.90;;;;;;;2.23;63.86;94852.66;4771681;29;20056;-39
2020/12/31 03:03:39;;;;;;;5.70;4.07;;;;;;;2.37;63.45;94863.25;4771635;30;20059;-41
2020/12/31 03:06:06;;;;;;;5.97;4.13;;;;;;;2.35;63.76;94868.13;4771608;29;20081;-41
2020/12/31 03:08:37;;;;;;;5.43;4.00;;;;;;;2.36;63.83;94861.69;4770756;30;20114;-40
2020/12/31 03:11:13;;;;;;;5.47;3.85;;;;;;;2.39;63.79;94858.41;4771354;30;20519;-41
2020/12/31 03:13:39;;;;;;;6.03;4.22;;;;;;;2.47;63.29;94863.00;4771257;30;20484;-40
2020/12/31 03:16:07;;;;;;;5.18;3.70;;;;;;;2.49;63.22;94870.69;4771110;30;20063;-41
2020/12/31 03:18:33;;;;;;;6.20;4.28;;;;;;;2.29;63.21;94834.63;4770872;30;20064;-40
2020/12/31 03:21:00;;;;;;;6.45;3.95;;;;;;;2.44;63.66;94862.81;4771304;29;20204;-47
2020/12/31 03:23:26;;;;;;;6.10;4.18;;;;;;;2.27;63.86;94863.50;4771215;30;20056;-40
2020/12/31 03:25:53;;;;;;;6.50;4.25;;;;;;;1.99;64.35;94863.66;4770939;30;20550;-41
2020/12/31 03:28:19;;;;;;;4.95;3.95;;;;;;;1.93;64.99;94854.19;4770902;29;20059;-39
2020/12/31 03:30:46;;;;;;;6.45;3.92;;;;;;;1.83;65.20;94855.22;4771401;29;20416;-39
2020/12/31 03:33:13;;;;;;;5.68;4.15;;;;;;;1.84;65.21;94856.00;4769773;30;20477;-41
2020/12/31 03:35:41;;;;;;;5.22;3.67;;;;;;;1.82;65.10;94852.84;4771111;30;20089;-39
2020/12/31 03:38:09;;;;;;;6.53;4.10;;;;;;;1.96;64.74;94858.16;4770316;30;20089;-40
2020/12/31 03:40:35;;;;;;;4.95;3.60;;;;;;;2.03;64.63;94858.50;4770794;29;20143;-41
2020/12/31 03:43:03;;;;;;;6.30;3.50;;;;;;;2.04;64.29;94863.50;4770729;29;20067;-42
2020/12/31 03:45:30;;;;;;;5.95;3.72;;;;;;;1.98;64.36;94864.75;4770983;30;20063;-40
2020/12/31 03:47:56;;;;;;;5.80;3.58;;;;;;;1.99;64.34;94852.97;4770262;30;20536;-39
2020/12/31 03:50:23;;;;;;;5.28;3.63;;;;;;;1.86;64.76;94848.50;4770610;29;20059;-39
2020/12/31 03:52:49;;;;;;;5.00;3.58;;;;;;;1.84;64.96;94848.00;4770269;30;20396;-39
2020/12/31 03:55:16;;;;;;;5.38;3.65;;;;;;;1.84;64.54;94851.47;4770766;30;20132;-41
2020/12/31 03:57:43;;;;;;;6.78;3.63;;;;;;;1.84;64.74;94853.34;4768698;29;20059;-39
2020/12/31 04:00:11;;;;;;;5.05;3.30;;;;;;;1.85;64.76;94844.25;4770699;29;20514;-41
2020/12/31 04:02:37;;;;;;;4.88;3.40;;;;;;;1.85;64.30;94834.38;4770518;30;20485;-42
2020/12/31 04:05:04;;;;;;;4.82;3.38;;;;;;;2.03;64.01;94837.16;4770360;30;20528;-41
2020/12/31 04:07:31;;;;;;;5.47;3.53;;;;;;;2.10;63.52;94838.28;4769972;29;20087;-40
2020/12/31 04:09:57;;;;;;;5.85;3.47;;;;;;;2.12;63.58;94835.34;4770122;30;20121;-39
2020/12/31 04:12:24;;;;;;;4.57;3.00;;;;;;;2.08;63.63;94819.16;4770229;30;20544;-39
2020/12/31 04:14:50;;;;;;;5.60;3.50;;;;;;;2.29;63.23;94834.63;4769232;29;20056;-43
2020/12/31 04:17:17;;;;;;;5.05;3.47;;;;;;;2.19;63.27;94825.00;4770014;30;20135;-39
2020/12/31 04:19:44;;;;;;;5.53;3.53;;;;;;;2.01;63.74;94824.09;4770007;29;20056;-41
2020/12/31 04:22:11;;;;;;;5.32;3.80;;;;;;;1.85;64.32;94828.25;4768900;30;20055;-40
2020/12/31 04:24:38;;;;;;;5.38;3.60;;;;;;;1.76;64.16;94819.41;4770167;29;20567;-39
2020/12/31 04:27:04;;;;;;;5.82;3.83;;;;;;;1.57;64.91;94825.69;4770005;30;20117;-42
2020/12/31 04:29:31;;;;;;;6.60;4.40;;;;;;;1.71;64.78;94824.84;4769478;30;20105;-40
2020/12/31 04:31:57;;;;;;;6.75;4.13;;;;;;;1.72;64.22;94821.09;4769782;30;20074;-39
2020/12/31 04:34:24;;;;;;;6.53;4.30;;;;;;;1.57;65.15;94812.38;4769996;30;20161;-43
2020/12/31 04:36:50;;;;;;;5.53;3.72;;;;;;;1.58;65.37;94821.16;4770167;29;20087;-40
2020/12/31 04:39:17;;;;;;;7.80;4.57;;;;;;;1.68;65.09;94814.78;4769182;30;20067;-41
2020/12/31 04:41:44;;;;;;;7.57;4.50;;;;;;;1.80;64.68;94807.81;4768322;30;20051;-40
2020/12/31 04:44:13;;;;;;;7.75;4.65;;;;;;;1.80;65.04;94807.03;4769713;30;20557;-43
2020/12/31 04:46:41;;;;;;;5.80;4.10;;;;;;;1.85;65.10;94817.56;4768383;30;20056;-40
2020/12/31 04:49:12;;;;;;;6.90;4.47;;;;;;;1.86;65.12;94817.28;4768997;30;20060;-40
2020/12/31 04:51:38;;;;;;;7.93;4.82;;;;;;;1.74;65.21;94817.03;4770083;30;20063;-40
2020/12/31 04:54:07;;;;;;;6.25;4.15;;;;;;;1.66;65.78;94814.28;4769805;29;20574;-39
2020/12/31 04:56:35;;;;;;;6.20;4.15;;;;;;;1.74;65.44;94813.59;4769856;30;20125;-41
2020/12/31 04:59:03;;;;;;;6.68;4.35;;;;;;;1.73;65.19;94809.34;4769732;30;20070;-41
2020/12/31 05:01:29;;;;;;;7.85;4.65;;;;;;;1.44;65.74;94804.44;4769694;29;20143;-42
2020/12/31 05:03:56;;;;;;;7.75;4.40;;;;;;;1.38;66.30;94809.06;4769189;30;20063;-44
2020/12/31 05:06:25;;;;;;;6.80;4.18;;;;;;;1.29;66.49;94792.22;4769176;29;20063;-40
2020/12/31 05:08:52;;;;;;;6.82;4.38;;;;;;;1.56;66.19;94823.31;4768837;29;20109;-41
2020/12/31 05:11:19;;;;;;;6.18;4.30;;;;;;;1.68;65.83;94818.25;4768368;30;20083;-43
2020/12/31 05:13:50;;;;;;;7.10;4.30;;;;;;;1.47;66.21;94814.50;4769691;30;20129;-39
2020/12/31 05:16:28;;;;;;;6.32;4.40;;;;;;;1.57;66.52;94820.38;4770168;30;20056;-42
2020/12/31 05:18:55;;;;;;;7.38;4.47;;;;;;;1.60;66.34;94819.75;4769084;30;20063;-42
2020/12/31 05:21:22;;;;;;;6.05;4.10;;;;;;;1.62;65.91;94822.13;4768980;30;20459;-41
2020/12/31 05:23:48;;;;;;;6.32;3.55;;;;;;;1.64;66.50;94820.72;4768967;29;20056;-42
2020/12/31 05:26:31;;;;;;;6.60;4.18;;;;;;;1.74;66.21;94818.91;4769193;29;20052;-43
2020/12/31 05:28:57;;;;;;;6.68;4.20;;;;;;;1.75;65.65;94815.94;4768293;30;20530;-42
2020/12/31 05:31:24;;;;;;;6.60;4.30;;;;;;;1.62;66.07;94812.22;4768665;30;20063;-43
2020/12/31 05:33:53;;;;;;;7.22;3.95;;;;;;;1.51;66.23;94807.47;4768724;30;20499;-43
2020/12/31 05:36:25;;;;;;;7.60;4.28;;;;;;;1.67;66.02;94813.22;4768768;29;20074;-44
2020/12/31 05:38:54;;;;;;;5.55;3.58;;;;;;;1.68;66.13;94815.56;4768106;30;20514;-42
2020/12/31 05:41:24;;;;;;;5.72;3.83;;;;;;;1.73;66.04;94822.69;4768631;29;20435;-43
2020/12/31 05:43:56;;;;;;;7.05;4.35;;;;;;;1.74;65.74;94818.91;4768903;29;20441;-40
2020/12/31 05:46:23;;;;;;;7.32;4.55;;;;;;;1.83;65.30;94817.09;4767847;29;20337;-40
2020/12/31 05:48:54;;;;;;;7.88;4.80;;;;;;;1.85;65.27;94807.72;4768836;30;20563;-42
2020/12/31 05:51:26;;;;;;;6.25;4.00;;;;;;;1.92;64.72;94812.63;4769321;30;20143;-39
2020/12/31 05:53:54;;;;;;;6.88;4.25;;;;;;;1.78;65.83;94817.22;4769076;29;20048;-39
2020/12/31 05:56:21;;;;;;;6.32;4.10;;;;;;;1.62;65.95;94812.22;4769511;29;20055;-39
2020/12/31 05:58:51;;;;;;;5.97;3.50;;;;;;;1.66;66.18;94814.28;4769021;30;20136;-42
2020/12/31 06:01:18;;;;;;;5.80;3.03;;;;;;;1.50;66.57;94804.00;4769894;30;20143;-39
2020/12/31 06:03:52;;;;;;;5.60;3.60;;;;;;;1.67;66.18;94814.00;4769151;30;20056;-39
2020/12/31 06:06:21;;;;;;;4.90;3.20;;;;;;;1.61;65.95;94808.00;4769128;30;20143;-41
2020/12/31 06:08:55;;;;;;;5.32;3.28;;;;;;;1.59;66.12;94804.88;4766560;29;20083;-42
2020/12/31 06:11:32;;;;;;;5.95;3.53;;;;;;;1.64;66.07;94817.28;4768424;29;20052;-41
2020/12/31 06:14:02;;;;;;;4.97;3.15;;;;;;;1.50;66.42;94809.34;4768786;29;20063;-40
2020/12/31 06:16:35;;;;;;;4.78;3.50;;;;;;;1.64;65.88;94814.63;4771809;30;20087;-43
2020/12/31 06:19:26;;;;;;;5.55;3.47;;;;;;;1.63;66.06;94808.50;4773977;30;20441;-39
2020/12/31 06:22:13;;;;;;;6.68;3.50;;;;;;;1.75;65.53;94810.59;4774605;30;20475;-40
2020/12/31 06:24:47;;;;;;;6.20;3.60;;;;;;;1.66;65.42;94807.09;4774377;29;20063;-39
2020/12/31 06:27:17;;;;;;;5.95;3.30;;;;;;;1.66;65.57;94816.97;4774516;29;20087;-39
2020/12/31 06:29:50;;;;;;;4.88;3.40;;;;;;;1.61;65.56;94815.22;4774851;30;20079;-39
2020/12/31 06:32:22;;;;;;;4.57;2.90;;;;;;;1.62;65.48;94820.22;4774745;29;20059;-40
2020/12/31 06:34:49;;;;;;;4.30;2.80;;;;;;;1.58;65.50;94821.94;4774622;30;20090;-39
2020/12/31 06:37:15;;;;;;;5.72;3.67;;;;;;;1.61;65.20;94818.66;4774403;29;20494;-39
2020/12/31 06:39:42;;;;;;;4.85;3.60;;;;;;;1.67;65.07;94813.22;4774105;30;20059;-39
2020/12/31 06:42:09;;;;;;;5.55;3.25;;;;;;;1.76;64.78;94817.53;4774492;30;20074;-42
2020/12/31 06:44:35;;;;;;;5.15;3.00;;;;;;;1.74;64.83;94824.25;4774669;30;20138;-45
2020/12/31 06:47:02;;;;;;;7.30;3.10;;;;;;;1.76;64.81;94824.75;4774672;30;20061;-39
2020/12/31 06:49:53;;;;;;;4.65;3.35;;;;;;;1.77;64.57;94824.44;4774327;30;20139;-40
2020/12/31 06:52:22;;;;;;;6.30;3.35;;;;;;;1.69;64.68;94821.69;4774993;30;20055;-39
2020/12/31 06:54:49;;;;;;;5.03;3.35;;;;;;;1.72;64.56;94832.53;4775121;30;20066;-39
2020/12/31 06:57:36;;;;;;;4.18;2.92;;;;;;;1.70;64.54;94823.28;4774510;30;20059;-39
2020/12/31 07:00:06;;;;;;;4.75;3.33;;;;;;;1.64;64.51;94819.94;4774945;29;20109;-39
2020/12/31 07:02:44;;;;;;;4.28;2.80;;;;;;;1.76;64.32;94822.88;4774396;30;20056;-39
2020/12/31 07:05:21;;;;;;;4.88;2.92;;;;;;;1.74;64.24;94822.38;4774307;29;20056;-43
2020/12/31 07:07:48;;;;;;;4.72;3.00;;;;;;;1.74;64.22;94824.25;4772557;30;20420;-40
2020/12/31 07:10:14;;;;;;;5.85;2.80;;;;;;;1.75;64.03;94825.81;4773989;29;20535;-40
2020/12/31 07:12:46;;;;;;;4.85;2.60;;;;;;;1.70;63.92;94826.75;4773246;30;20716;-39
2020/12/31 07:15:15;;;;;;;5.25;2.83;;;;;;;1.68;64.04;94830.78;4774628;30;20503;-38
2020/12/31 07:17:44;;;;;;;4.63;3.05;;;;;;;1.51;64.34;94834.13;4773631;30;20152;-38
2020/12/31 07:20:12;;;;;;;5.07;3.03;;;;;;;1.27;64.92;94834.34;4776004;30;20071;-40
2020/12/31 07:22:41;;;;;;;5.97;3.00;;;;;;;1.03;65.31;94819.41;4777410;30;20105;-40
2020/12/31 07:25:15;;;;;;;4.97;3.10;;;;;;;0.98;66.19;94832.84;4774164;30;20072;-39
2020/12/31 07:27:43;;;;;;;5.88;3.13;;;;;;;0.95;66.26;94819.34;4771721;29;20063;-39
2020/12/31 07:30:12;;;;;;;6.40;3.42;;;;;;;1.23;65.86;94828.06;4771480;30;20055;-37
2020/12/31 07:33:01;;;;;;;5.70;3.13;;;;;;;1.42;65.30;94823.38;4771652;30;20113;-40
2020/12/31 07:35:30;;;;;;;6.35;3.70;;;;;;;1.47;64.90;94820.59;4772143;29;20128;-39
2020/12/31 07:38:02;;;;;;;6.72;4.30;;;;;;;1.32;65.38;94819.06;4770902;29;20059;-42
2020/12/31 07:40:31;;;;;;;6.45;3.65;;;;;;;1.15;65.99;94825.03;4772125;29;20614;-42
2020/12/31 07:42:58;;;;;;;9.68;3.85;;;;;;;0.80;66.72;94828.41;4771783;30;20476;-38
2020/12/31 07:45:26;;;;;;;5.78;3.38;;;;;;;0.47;67.63;94826.66;4771192;30;20082;-42
2020/12/31 07:47:53;;;;;;;6.00;3.47;;;;;;;0.36;68.56;94827.16;4769392;29;20064;-38
2020/12/31 07:50:21;;;;;;;7.13;3.63;;;;;;;0.32;68.29;94808.31;4771020;29;20060;-38
2020/12/31 07:52:48;;;;;;;5.88;3.50;;;;;;;0.49;68.17;94826.38;4771213;30;20063;-39
2020/12/31 07:55:16;;;;;;;6.68;3.72;;;;;;;0.61;67.98;94820.53;4770809;30;20514;-39
2020/12/31 07:57:42;;;;;;;6.55;3.58;;;;;;;0.86;67.17;94821.91;4770333;30;20067;-39
2020/12/31 08:00:20;;;;;;;6.68;3.35;;;;;;;1.01;66.68;94829.59;4770765;30;20588;-39
2020/12/31 08:02:55;;;;;;;7.13;3.25;;;;;;;1.08;66.48;94813.22;4770706;30;20063;-39
2020/12/31 08:05:26;;;;;;;4.97;3.13;;;;;;;0.97;66.99;94815.28;4770694;29;20138;-41
2020/12/31 08:07:57;;;;;;;6.93;3.40;;;;;;;1.04;66.75;94807.69;4770177;29;20062;-38
2020/12/31 08:10:32;;;;;;;7.57;3.58;;;;;;;1.18;66.66;94802.31;4770960;29;20090;-38
2020/12/31 08:13:02;;;;;;;4.30;3.20;;;;;;;1.37;66.05;94794.97;4770563;30;20058;-39
2020/12/31 08:15:29;;;;;;;4.88;3.05;;;;;;;1.54;65.21;94807.63;4770813;30;20056;-39
2020/12/31 08:17:58;;;;;;;5.45;3.33;;;;;;;1.63;64.70;94807.72;4769983;29;20108;-40
2020/12/31 08:20:28;;;;;;;4.78;3.03;;;;;;;1.71;64.47;94800.84;4770686;30;20055;-39
2020/12/31 08:22:57;;;;;;;4.55;2.88;;;;;;;1.80;63.52;94796.38;4770544;30;20109;-39
2020/12/31 08:25:25;;;;;;;4.60;2.35;;;;;;;1.91;63.12;94803.03;4770994;30;20058;-39
2020/12/31 08:27:56;;;;;;;3.85;2.03;;;;;;;1.84;62.94;94786.66;4770867;29;20090;-38
2020/12/31 08:30:23;;;;;;;4.50;2.25;;;;;;;1.86;62.80;94795.16;4770141;30;20062;-40
2020/12/31 08:32:50;;;;;;;3.53;2.20;;;;;;;1.88;62.42;94795.63;4770470;30;20052;-38
2020/12/31 08:35:20;;;;;;;5.50;2.20;;;;;;;1.92;62.46;94798.47;4770432;30;20429;-40
2020/12/31 08:37:58;;;;;;;3.08;1.88;;;;;;;1.92;62.06;94825.97;4769695;29;20059;-45
2020/12/31 08:40:24;;;;;;;4.80;1.83;;;;;;;1.96;61.81;94804.78;4769906;30;20365;-43
2020/12/31 08:42:54;;;;;;;4.53;2.47;;;;;;;1.99;61.83;94799.63;4770335;29;20051;-40
2020/12/31 08:45:29;;;;;;;3.42;2.20;;;;;;;1.99;61.53;94818.31;4770012;30;20083;-40
2020/12/31 08:48:25;;;;;;;3.13;1.83;;;;;;;1.99;61.94;94796.19;4769505;30;20128;-38
2020/12/31 08:51:01;;;;;;;5.10;2.55;;;;;;;2.07;61.45;94796.22;4769137;30;20064;-38
2020/12/31 08:53:28;;;;;;;2.92;1.90;;;;;;;2.05;61.31;94795.75;4769943;29;20062;-39
2020/12/31 08:55:57;;;;;;;3.63;2.10;;;;;;;1.92;61.28;94793.94;4769947;30;20595;-38
2020/12/31 08:58:30;;;;;;;4.30;2.40;;;;;;;1.87;61.88;94781.50;4769091;29;20494;-41
2020/12/31 09:00:58;;;;;;;4.25;2.58;;;;;;;1.95;61.68;94780.00;4769943;30;20067;-38
2020/12/31 09:03:25;;;;;;;4.55;2.40;;;;;;;2.03;61.38;94773.91;4768982;30;20062;-43
2020/12/31 09:06:02;;;;;;;4.78;2.40;;;;;;;2.16;61.01;94774.91;4768436;30;20079;-41
2020/12/31 09:08:32;;;;;;;3.55;2.40;;;;;;;2.33;60.07;94771.53;4767636;30;20477;-40
2020/12/31 09:11:00;;;;;;;4.53;2.33;;;;;;;2.32;59.95;94769.97;4769354;30;20056;-42
2020/12/31 09:13:26;;;;;;;4.10;2.53;;;;;;;2.30;59.95;94775.59;4769450;29;20131;-46
2020/12/31 09:16:13;;;;;;;4.68;2.65;;;;;;;2.34;59.87;94773.91;4769339;30;20117;-42
2020/12/31 09:18:41;;;;;;;4.15;2.65;;;;;;;2.22;60.26;94764.91;4768679;29;20193;-43
2020/12/31 09:21:08;;;;;;;5.28;3.03;;;;;;;2.28;60.07;94766.34;4769081;30;20085;-41
2020/12/31 09:23:35;;;;;;;5.70;2.60;;;;;;;2.26;59.64;94744.50;4767848;30;20423;-42
2020/12/31 09:26:04;;;;;;;5.72;2.95;;;;;;;2.21;60.04;94748.09;4769160;29;20499;-41
2020/12/31 09:28:30;;;;;;;5.50;3.13;;;;;;;2.35;59.93;94750.66;4769598;30;20060;-43
2020/12/31 09:31:14;;;;;;;5.20;2.70;;;;;;;2.44;60.04;94746.16;4769663;29;20083;-44
2020/12/31 09:33:40;;;;;;;3.97;2.72;;;;;;;2.61;59.10;94748.09;4768867;29;20130;-40
2020/12/31 09:36:07;;;;;;;4.57;2.67;;;;;;;2.72;58.75;94749.34;4768814;30;20071;-41
2020/12/31 09:38:33;;;;;;;4.50;2.78;;;;;;;2.73;58.51;94739.44;4767418;30;20428;-40
2020/12/31 09:41:00;;;;;;;5.10;3.00;;;;;;;2.86;58.22;94746.56;4768943;30;20121;-42
2020/12/31 09:43:26;;;;;;;3.92;2.72;;;;;;;2.90;57.87;94747.50;4769255;30;20086;-41
2020/12/31 09:45:52;;;;;;;5.63;2.70;;;;;;;2.94;57.07;94740.44;4769058;30;20067;-41
2020/12/31 09:48:19;;;;;;;4.60;2.83;;;;;;;3.00;56.82;94738.41;4768289;30;20423;-41
2020/12/31 09:50:45;;;;;;;4.50;2.50;;;;;;;2.92;56.36;94734.63;4767013;30;20514;-41
2020/12/31 09:53:11;;;;;;;4.20;2.28;;;;;;;2.87;56.23;94734.00;4768816;30;20246;-40
2020/12/31 09:55:42;;;;;;;4.38;2.60;;;;;;;2.99;55.57;94742.97;4769136;30;20071;-42
2020/12/31 09:58:09;;;;;;;3.45;2.00;;;;;;;3.00;54.83;94736.53;4768573;30;20086;-41
2020/12/31 10:00:35;;;;;;;3.67;2.28;;;;;;;2.94;54.95;94735.09;4769424;30;20059;-41
2020/12/31 10:03:02;;;;;;;4.00;2.20;;;;;;;3.03;54.65;94735.13;4767664;30;20055;-39
2020/12/31 10:05:28;;;;;;;2.85;1.80;;;;;;;3.09;54.03;94725.03;4769127;30;20134;-40
2020/12/31 10:07:54;;;;;;;5.25;2.28;;;;;;;3.13;54.06;94726.78;4768094;29;20083;-40
2020/12/31 10:10:21;;;;;;;2.92;1.92;;;;;;;3.10;54.13;94724.75;4768941;30;20171;-40
2020/12/31 10:12:47;;;;;;;3.58;2.03;;;;;;;3.30;53.31;94717.97;4769524;30;20060;-43
2020/12/31 10:15:13;;;;;;;3.88;2.05;;;;;;;3.33;53.09;94716.56;4769285;30;20105;-40
2020/12/31 10:17:40;;;;;;;3.35;2.08;;;;;;;3.40;52.77;94712.31;4767983;30;20068;-40
2020/12/31 10:20:06;;;;;;;3.83;1.90;;;;;;;3.44;52.80;94707.09;4768699;30;20056;-40
2020/12/31 10:22:32;;;;;;;3.47;2.13;;;;;;;3.51;52.62;94696.75;4768607;29;20142;-40
2020/12/31 10:24:59;;;;;;;3.22;2.05;;;;;;;3.62;52.06;94689.94;4768696;30;20512;-45
2020/12/31 10:27:25;;;;;;;3.78;2.08;;;;;;;3.70;52.18;94689.13;4766938;29;20083;-44
2020/12/31 10:29:52;;;;;;;5.82;2.38;;;;;;;3.71;52.29;94685.38;4768560;30;20503;-43
2020/12/31 10:32:19;;;;;;;4.15;2.30;;;;;;;3.82;51.23;94680.44;4768286;30;20400;-45
2020/12/31 10:34:46;;;;;;;4.15;2.50;;;;;;;3.77;51.34;94671.78;4768522;30;20480;-44
2020/12/31 10:37:12;;;;;;;3.72;2.30;;;;;;;3.75;50.78;94669.47;4768978;29;20067;-44
2020/12/31 10:39:39;;;;;;;4.40;2.20;;;;;;;3.72;50.87;94662.06;4767835;30;20140;-46
2020/12/31 10:42:06;;;;;;;6.55;2.25;;;;;;;3.83;50.92;94675.88;4768266;30;20531;-44
2020/12/31 10:44:32;;;;;;;3.47;2.00;;;;;;;4.08;50.38;94663.50;4768273;30;20052;-43
2020/12/31 10:46:59;;;;;;;5.28;2.15;;;;;;;4.10;49.86;94659.41;4768406;29;20452;-45
2020/12/31 10:49:25;;;;;;;2.90;1.80;;;;;;;4.05;49.31;94658.81;4768550;29;20082;-45
2020/12/31 10:51:52;;;;;;;3.90;2.05;;;;;;;3.98;49.69;94654.72;4768238;30;20087;-44
2020/12/31 10:54:18;;;;;;;4.10;2.03;;;;;;;4.05;50.19;94658.81;4769270;30;20059;-44
2020/12/31 10:56:44;;;;;;;3.38;1.80;;;;;;;4.31;48.81;94651.44;4768911;30;20128;-43
2020/12/31 10:59:11;;;;;;;3.42;2.15;;;;;;;4.39;48.40;94655.19;4768292;30;20091;-42
2020/12/31 11:01:37;;;;;;;3.05;1.90;;;;;;;4.48;47.89;94644.41;4768602;30;20083;-44
2020/12/31 11:04:03;;;;;;;3.72;2.03;;;;;;;4.64;48.03;94648.06;4770727;29;20058;-43
2020/12/31 11:06:30;;;;;;;4.63;1.75;;;;;;;4.59;47.25;94634.88;4771778;29;20055;-44
2020/12/31 11:08:57;;;;;;;3.95;1.92;;;;;;;4.60;47.80;94639.13;4771071;30;20126;-43
2020/12/31 11:11:30;;;;;;;3.78;1.80;;;;;;;4.54;48.04;94635.06;4771731;30;20083;-42
2020/12/31 11:13:57;;;;;;;3.30;1.80;;;;;;;4.54;48.04;94624.34;4771535;30;20154;-41
2020/12/31 11:16:24;;;;;;;6.85;2.30;;;;;;;4.65;47.64;94604.13;4771476;30;20138;-41
2020/12/31 11:18:50;;;;;;;3.20;1.90;;;;;;;4.73;47.24;94619.34;4770452;29;20094;-42
2020/12/31 11:21:19;;;;;;;4.00;2.05;;;;;;;4.73;47.42;94610.53;4771374;30;20408;-42
2020/12/31 11:23:46;;;;;;;3.35;2.03;;;;;;;4.96;47.78;94602.91;4771323;30;20104;-41
2020/12/31 11:26:14;;;;;;;3.08;1.88;;;;;;;5.87;45.28;94614.44;4771359;29;20085;-42
2020/12/31 11:28:42;;;;;;;4.65;2.00;;;;;;;6.67;43.18;94603.16;4770686;29;20091;-41
2020/12/31 11:31:10;;;;;;;3.38;1.98;;;;;;;7.17;41.89;94599.16;4770905;30;20515;-41
2020/12/31 11:33:37;;;;;;;3.92;2.08;;;;;;;7.67;41.13;94581.66;4771317;29;20052;-42
2020/12/31 11:36:05;;;;;;;4.57;2.17;;;;;;;8.28;40.72;94580.41;4769838;30;20079;-44
2020/12/31 11:38:32;;;;;;;3.45;2.00;;;;;;;8.78;38.28;94586.16;4770203;29;20059;-40
2020/12/31 11:40:59;;;;;;;4.82;2.47;;;;;;;9.10;38.16;94586.81;4771018;29;20058;-41
2020/12/31 11:43:26;;;;;;;3.58;2.20;;;;;;;9.00;37.33;94580.06;4771015;30;20139;-43
2020/12/31 11:45:52;;;;;;;5.60;1.88;;;;;;;9.42;36.94;94582.00;4771081;29;20093;-40
2020/12/31 11:48:18;;;;;;;5.57;2.28;;;;;;;9.73;35.95;94567.53;4770262;29;20068;-41